Time;durP1;ratioP1;P1;durP2;ratioP2;P2;SDS_P1;SDS_P2;PMS_P1;PMS_P2;Temp;Humidity;BMP_temperature;BMP_pressure;BME280_temperature;BME280_humidity;BME280_pressure;Samples;Min_cycle;Max_cycle;Signal;HPM_P1;HPM_P2
2021/06/12 00:00:51;;;;;;;7.70;6.27;;;19.20;99.90;;;;;;5113266;28;20183;-70
2021/06/12 00:03:16;;;;;;;7.77;6.60;;;19.20;99.90;;;;;;5113290;28;20158;-70
2021/06/12 00:05:42;;;;;;;7.20;6.47;;;19.10;99.90;;;;;;5113191;28;20461;-70
2021/06/12 00:08:08;;;;;;;8.23;6.80;;;19.10;99.90;;;;;;5113178;28;20169;-70
2021/06/12 00:10:38;;;;;;;9.87;6.37;;;19.10;99.90;;;;;;5113055;28;20168;-70
2021/06/12 00:13:05;;;;;;;9.77;6.60;;;19.20;99.90;;;;;;5112324;28;20569;-70
2021/06/12 00:15:32;;;;;;;11.40;6.03;;;19.20;99.90;;;;;;5113183;28;20761;-70
2021/06/12 00:17:58;;;;;;;9.57;6.60;;;19.20;99.90;;;;;;5113219;28;20430;-70
2021/06/12 00:20:26;;;;;;;7.60;6.67;;;19.20;99.90;;;;;;5113597;28;20430;-70
2021/06/12 00:22:52;;;;;;;8.10;6.37;;;19.20;99.90;;;;;;5113281;28;20462;-70
2021/06/12 00:25:24;;;;;;;9.67;6.97;;;19.20;99.90;;;;;;5113356;28;20450;-70
2021/06/12 00:27:51;;;;;;;9.53;6.53;;;19.20;99.90;;;;;;5113328;28;20867;-71
2021/06/12 00:30:16;;;;;;;7.20;6.47;;;19.20;99.90;;;;;;5108872;28;20404;-70
2021/06/12 00:32:42;;;;;;;9.20;7.50;;;19.20;99.90;;;;;;5092758;28;20396;-70
2021/06/12 00:35:10;;;;;;;10.10;7.70;;;19.10;99.90;;;;;;5093174;28;20185;-70
2021/06/12 00:37:37;;;;;;;11.07;7.00;;;19.10;99.90;;;;;;5092609;28;20513;-70
2021/06/12 00:40:05;;;;;;;8.80;8.00;;;19.10;99.90;;;;;;5092556;28;20401;-70
2021/06/12 00:42:30;;;;;;;9.40;7.43;;;19.10;99.90;;;;;;5092633;28;20427;-70
2021/06/12 00:44:56;;;;;;;10.23;7.67;;;19.10;99.90;;;;;;5092482;28;20474;-71
2021/06/12 00:47:22;;;;;;;13.00;8.53;;;19.00;99.90;;;;;;5093125;28;20209;-70
2021/06/12 00:49:47;;;;;;;9.20;8.20;;;19.00;99.90;;;;;;5093022;28;20493;-71
2021/06/12 00:52:13;;;;;;;12.10;9.03;;;19.00;99.90;;;;;;5094565;28;20202;-71
2021/06/12 00:54:39;;;;;;;10.80;8.30;;;18.90;99.90;;;;;;5096472;28;20195;-70
2021/06/12 00:57:05;;;;;;;8.87;7.97;;;18.90;99.90;;;;;;5096277;28;20159;-70
2021/06/12 00:59:32;;;;;;;11.03;8.90;;;18.90;99.90;;;;;;5096302;28;20232;-70
2021/06/12 01:01:59;;;;;;;10.90;8.70;;;18.90;99.90;;;;;;5096373;28;20394;-70
2021/06/12 01:04:25;;;;;;;12.77;9.90;;;18.80;99.90;;;;;;5101085;28;20469;-70
2021/06/12 01:06:51;;;;;;;17.60;10.37;;;18.80;99.90;;;;;;5116585;28;20483;-71
2021/06/12 01:09:19;;;;;;;20.13;12.90;;;18.70;99.90;;;;;;5116582;28;20475;-71
2021/06/12 01:12:02;;;;;;;18.80;12.93;;;18.70;99.90;;;;;;5116592;28;20624;-70
2021/06/12 01:14:30;;;;;;;22.50;16.93;;;18.70;99.90;;;;;;5116457;28;20421;-70
2021/06/12 01:17:05;;;;;;;15.63;13.33;;;18.70;99.90;;;;;;5116407;28;20392;-71
2021/06/12 01:22:14;;;;;;;14.87;12.00;;;18.70;99.90;;;;;;5115693;27;20680;-70
2021/06/12 01:30:28;;;;;;;11.37;8.50;;;18.60;99.90;;;;;;5142148;27;20643;-70
2021/06/12 01:32:59;;;;;;;14.13;9.47;;;18.60;99.90;;;;;;5111046;28;20403;-70
2021/06/12 01:38:05;;;;;;;10.30;8.47;;;18.70;99.90;;;;;;5145417;27;20677;-71
2021/06/12 01:40:34;;;;;;;11.03;9.70;;;18.70;99.90;;;;;;5110799;28;20430;-71
2021/06/12 01:43:02;;;;;;;13.80;11.10;;;18.80;99.90;;;;;;5110639;28;20485;-71
2021/06/12 01:45:28;;;;;;;17.70;13.30;;;18.80;99.90;;;;;;5110975;28;20946;-71
2021/06/12 01:47:55;;;;;;;14.37;10.47;;;18.90;99.90;;;;;;5110801;28;20793;-71
2021/06/12 01:50:22;;;;;;;13.90;9.87;;;18.90;99.90;;;;;;5110634;28;20458;-71
2021/06/12 01:52:48;;;;;;;11.97;8.93;;;18.90;99.90;;;;;;5110565;28;20390;-71
2021/06/12 01:55:17;;;;;;;11.70;9.80;;;18.90;99.90;;;;;;5110613;28;20411;-71
2021/06/12 01:57:44;;;;;;;10.10;8.27;;;19.00;99.90;;;;;;5110348;28;20441;-71
2021/06/12 02:00:11;;;;;;;10.20;9.07;;;19.00;99.90;;;;;;5110502;28;20424;-71
2021/06/12 02:02:39;;;;;;;15.90;9.07;;;19.00;99.90;;;;;;5099149;28;20405;-71
2021/06/12 02:05:06;;;;;;;8.50;7.30;;;19.00;99.90;;;;;;5089890;28;20404;-71
2021/06/12 02:07:34;;;;;;;9.67;7.97;;;19.00;99.90;;;;;;5089969;28;20410;-71
2021/06/12 02:10:01;;;;;;;10.27;8.40;;;19.00;99.90;;;;;;5089706;28;20425;-71
2021/06/12 02:12:28;;;;;;;9.40;6.93;;;19.10;99.90;;;;;;5095713;28;20900;-71
2021/06/12 02:14:56;;;;;;;8.47;6.60;;;19.10;99.90;;;;;;5110081;28;20455;-71
2021/06/12 02:17:22;;;;;;;8.83;6.77;;;19.10;99.90;;;;;;5110041;28;20443;-71
2021/06/12 02:19:48;;;;;;;8.30;6.80;;;19.10;99.90;;;;;;5110030;28;20890;-71
2021/06/12 02:22:15;;;;;;;8.07;6.50;;;19.10;99.90;;;;;;5110010;28;20171;-71
2021/06/12 02:24:41;;;;;;;10.90;6.90;;;19.10;99.90;;;;;;5110165;28;20398;-71
2021/06/12 02:27:09;;;;;;;8.37;7.33;;;19.10;99.90;;;;;;5109915;28;20399;-71
2021/06/12 02:29:38;;;;;;;8.30;6.50;;;19.10;99.90;;;;;;5109968;28;20903;-71
2021/06/12 02:34:38;;;;;;;8.90;7.00;;;19.10;99.90;;;;;;5147462;27;20292;-71
2021/06/12 02:37:05;;;;;;;9.67;6.83;;;19.20;99.90;;;;;;5131306;28;20745;-71
2021/06/12 02:39:31;;;;;;;10.43;7.77;;;19.10;99.90;;;;;;5131356;28;20154;-70
2021/06/12 02:41:57;;;;;;;8.20;7.03;;;19.10;99.90;;;;;;5131471;28;20394;-70
2021/06/12 02:44:22;;;;;;;11.00;6.90;;;19.20;99.90;;;;;;5131287;28;20467;-70
2021/06/12 02:46:48;;;;;;;8.27;7.30;;;19.20;99.90;;;;;;5122658;28;20182;-70
2021/06/12 02:49:18;;;;;;;7.37;6.47;;;19.20;99.90;;;;;;5111285;28;20165;-70
2021/06/12 02:51:48;;;;;;;8.40;7.23;;;19.20;99.90;;;;;;5110411;28;20169;-70
2021/06/12 02:54:20;;;;;;;6.90;6.17;;;19.20;99.90;;;;;;5110460;28;21044;-71
2021/06/12 02:56:47;;;;;;;8.00;7.20;;;19.20;99.90;;;;;;5110354;28;20398;-70
2021/06/12 02:59:17;;;;;;;9.40;8.30;;;19.20;99.90;;;;;;5110720;28;20533;-70
2021/06/12 03:01:43;;;;;;;9.10;7.17;;;19.20;99.90;;;;;;5114229;28;20406;-71
2021/06/12 03:04:13;;;;;;;7.50;6.67;;;19.10;99.90;;;;;;5129937;28;20406;-71
2021/06/12 03:06:41;;;;;;;10.20;7.10;;;19.10;99.90;;;;;;5130761;28;20756;-70
2021/06/12 03:09:07;;;;;;;10.60;8.43;;;19.10;99.90;;;;;;5130816;28;20490;-71
2021/06/12 03:11:34;;;;;;;9.97;7.10;;;19.10;99.90;;;;;;5130659;28;20398;-70
2021/06/12 03:14:02;;;;;;;11.77;8.03;;;19.10;99.90;;;;;;5130502;28;20536;-70
2021/06/12 03:16:28;;;;;;;8.93;7.23;;;19.10;99.90;;;;;;5130994;28;20858;-70
2021/06/12 03:18:54;;;;;;;10.07;7.80;;;19.10;99.90;;;;;;5130553;28;20423;-70
2021/06/12 03:21:24;;;;;;;9.97;7.40;;;19.10;99.90;;;;;;5129631;28;20176;-70
2021/06/12 03:23:52;;;;;;;13.70;8.73;;;19.10;99.90;;;;;;5130406;28;20168;-70
2021/06/12 03:26:18;;;;;;;8.70;7.27;;;19.10;99.90;;;;;;5130530;28;20399;-70
2021/06/12 03:28:44;;;;;;;9.33;7.20;;;19.10;99.90;;;;;;5130388;28;20391;-71
2021/06/12 03:31:10;;;;;;;9.73;6.93;;;19.10;99.90;;;;;;5130595;28;20487;-70
2021/06/12 03:33:37;;;;;;;8.70;7.37;;;19.00;99.90;;;;;;5116716;28;20893;-70
2021/06/12 03:36:03;;;;;;;10.00;8.30;;;19.00;99.90;;;;;;5109696;28;20171;-71
2021/06/12 03:38:30;;;;;;;9.20;6.60;;;19.10;99.90;;;;;;5110444;28;20454;-71
2021/06/12 03:40:57;;;;;;;8.20;7.10;;;19.00;99.90;;;;;;5109634;28;20887;-70
2021/06/12 03:43:24;;;;;;;11.83;7.93;;;19.00;99.90;;;;;;5109702;28;20485;-71
2021/06/12 03:45:54;;;;;;;9.00;7.37;;;19.00;99.90;;;;;;5097068;28;20410;-70
2021/06/12 03:48:21;;;;;;;8.90;6.60;;;19.00;99.90;;;;;;5095876;28;20739;-71
2021/06/12 03:50:47;;;;;;;10.73;8.53;;;19.00;99.90;;;;;;5095797;28;20391;-71
2021/06/12 03:53:14;;;;;;;8.87;7.60;;;19.00;99.90;;;;;;5095561;28;20549;-71
2021/06/12 03:55:40;;;;;;;8.40;7.60;;;19.00;99.90;;;;;;5096279;28;20408;-70
2021/06/12 03:58:05;;;;;;;10.77;6.27;;;19.00;99.90;;;;;;5095873;28;20522;-71
2021/06/12 04:00:31;;;;;;;8.57;6.63;;;19.00;99.90;;;;;;5095659;28;20495;-70
2021/06/12 04:02:57;;;;;;;6.90;6.20;;;19.10;99.90;;;;;;5095602;28;20181;-71
2021/06/12 04:05:22;;;;;;;8.60;5.73;;;19.00;99.90;;;;;;5095740;28;20184;-71
2021/06/12 04:07:48;;;;;;;8.80;7.47;;;19.10;99.90;;;;;;5095597;28;20497;-71
2021/06/12 04:10:14;;;;;;;6.30;5.43;;;19.10;99.90;;;;;;5095576;28;20165;-70
2021/06/12 04:12:40;;;;;;;8.60;6.57;;;19.10;99.90;;;;;;5111476;28;20197;-71
2021/06/12 04:15:06;;;;;;;6.63;5.40;;;19.10;99.90;;;;;;5115841;28;20236;-71
2021/06/12 04:17:32;;;;;;;8.27;5.60;;;19.10;99.90;;;;;;5115870;28;20475;-71
2021/06/12 04:19:58;;;;;;;14.63;8.30;;;19.10;99.90;;;;;;5115702;28;20388;-70
2021/06/12 04:22:25;;;;;;;8.97;6.17;;;19.10;99.90;;;;;;5115671;28;20414;-70
2021/06/12 04:24:50;;;;;;;8.97;6.80;;;19.10;99.90;;;;;;5115681;28;20750;-70
2021/06/12 04:27:16;;;;;;;8.80;6.60;;;19.10;99.90;;;;;;5116045;28;20388;-71
2021/06/12 04:29:42;;;;;;;8.87;6.77;;;19.10;99.90;;;;;;5114744;28;20203;-70
2021/06/12 04:32:07;;;;;;;9.10;7.20;;;19.10;99.90;;;;;;5115521;28;20188;-70
2021/06/12 04:34:33;;;;;;;9.07;8.00;;;19.10;99.90;;;;;;5115205;28;20202;-71
2021/06/12 04:36:59;;;;;;;8.23;7.10;;;19.10;99.90;;;;;;5115395;28;20180;-70
2021/06/12 04:39:26;;;;;;;8.70;7.80;;;19.10;99.90;;;;;;5115191;28;20204;-70
2021/06/12 04:41:51;;;;;;;9.47;7.80;;;19.10;99.90;;;;;;5115973;28;20435;-71
2021/06/12 04:44:17;;;;;;;8.67;7.73;;;19.10;99.90;;;;;;5115262;28;20845;-71
2021/06/12 04:46:43;;;;;;;10.93;7.57;;;19.00;99.90;;;;;;5114518;28;20637;-71
2021/06/12 04:49:09;;;;;;;11.13;7.60;;;19.00;99.90;;;;;;5115151;28;20198;-71
2021/06/12 04:51:35;;;;;;;8.37;6.90;;;19.00;99.90;;;;;;5115034;28;20824;-70
2021/06/12 04:54:00;;;;;;;8.77;7.87;;;19.10;99.90;;;;;;5115034;28;20451;-70
2021/06/12 04:56:26;;;;;;;10.80;7.47;;;19.10;99.90;;;;;;5114807;28;20619;-71
2021/06/12 04:58:52;;;;;;;8.13;7.03;;;19.10;99.90;;;;;;5114918;28;20668;-71
2021/06/12 05:01:17;;;;;;;9.47;7.80;;;19.20;99.90;;;;;;5114975;28;20373;-70
2021/06/12 05:03:43;;;;;;;9.50;7.53;;;19.20;99.90;;;;;;5113974;28;20181;-71
2021/06/12 05:06:08;;;;;;;9.17;7.70;;;19.30;99.90;;;;;;5114976;28;20159;-70
2021/06/12 05:08:34;;;;;;;8.40;7.60;;;19.30;99.90;;;;;;5114909;28;20161;-70
2021/06/12 05:10:59;;;;;;;10.60;7.70;;;19.40;99.90;;;;;;5115281;28;20606;-71
2021/06/12 05:13:25;;;;;;;10.00;8.47;;;19.40;99.90;;;;;;5114809;28;20238;-70
2021/06/12 05:15:54;;;;;;;8.57;7.07;;;19.40;99.90;;;;;;5114709;28;20617;-70
2021/06/12 05:18:21;;;;;;;9.77;8.53;;;19.50;99.90;;;;;;5114619;28;20249;-70
2021/06/12 05:20:46;;;;;;;9.60;8.10;;;19.60;99.90;;;;;;5113704;28;20407;-70
2021/06/12 05:23:12;;;;;;;9.67;8.00;;;19.60;99.90;;;;;;5114679;28;20471;-70
2021/06/12 05:25:42;;;;;;;14.53;7.77;;;19.60;99.90;;;;;;5115209;28;20154;-70
2021/06/12 05:28:07;;;;;;;9.30;7.80;;;19.70;99.90;;;;;;5114544;28;20170;-70
2021/06/12 05:30:33;;;;;;;10.80;8.83;;;19.70;99.90;;;;;;5114400;28;20391;-70
2021/06/12 05:32:58;;;;;;;10.00;9.00;;;19.80;99.90;;;;;;5114346;28;20244;-70
2021/06/12 05:35:24;;;;;;;10.60;9.37;;;19.90;99.90;;;;;;5101345;28;20616;-70
2021/06/12 05:37:50;;;;;;;10.97;9.77;;;20.00;99.90;;;;;;5094773;28;20228;-70
2021/06/12 05:40:15;;;;;;;9.60;8.60;;;20.10;99.90;;;;;;5094157;28;20155;-71
2021/06/12 05:42:41;;;;;;;11.30;9.80;;;20.20;99.90;;;;;;5093902;28;20557;-71
2021/06/12 05:45:10;;;;;;;11.30;10.20;;;20.20;99.90;;;;;;5093855;28;20639;-71
2021/06/12 05:47:36;;;;;;;11.47;10.37;;;20.30;99.90;;;;;;5093774;28;20167;-70
2021/06/12 05:50:03;;;;;;;10.77;9.67;;;20.40;99.90;;;;;;5093929;28;20804;-70
2021/06/12 05:52:28;;;;;;;11.60;9.63;;;20.40;99.90;;;;;;5093764;28;20397;-70
2021/06/12 05:54:54;;;;;;;11.50;10.30;;;20.40;99.90;;;;;;5094503;28;20420;-70
2021/06/12 05:57:19;;;;;;;14.40;10.30;;;20.50;99.90;;;;;;5093625;28;20180;-70
2021/06/12 05:59:45;;;;;;;13.73;12.20;;;20.50;99.90;;;;;;5093327;28;20194;-70
2021/06/12 06:02:10;;;;;;;17.00;13.97;;;20.50;99.90;;;;;;5093356;28;20208;-70
2021/06/12 06:04:36;;;;;;;13.23;11.57;;;20.50;99.90;;;;;;5093375;28;20608;-70
2021/06/12 06:07:01;;;;;;;14.07;11.93;;;20.60;99.90;;;;;;5093473;28;20177;-71
2021/06/12 06:09:27;;;;;;;13.73;11.43;;;20.60;99.90;;;;;;5093244;28;20180;-70
2021/06/12 06:11:52;;;;;;;11.47;10.20;;;20.60;99.90;;;;;;5110842;28;20181;-71
2021/06/12 06:14:18;;;;;;;13.40;12.00;;;20.70;99.90;;;;;;5113522;28;20178;-71
2021/06/12 06:16:44;;;;;;;12.70;11.50;;;20.70;99.90;;;;;;5113642;28;20519;-71
2021/06/12 06:19:09;;;;;;;12.83;11.57;;;20.70;99.90;;;;;;5113695;28;20158;-70
2021/06/12 06:21:35;;;;;;;14.53;11.20;;;20.80;99.90;;;;;;5113909;28;20180;-71
2021/06/12 06:24:01;;;;;;;11.70;10.60;;;20.90;99.90;;;;;;5114397;28;20173;-71
2021/06/12 06:26:27;;;;;;;11.13;10.03;;;21.00;99.90;;;;;;5113810;28;20400;-70
2021/06/12 06:28:53;;;;;;;10.30;9.10;;;21.10;99.90;;;;;;5112589;28;20408;-71
2021/06/12 06:31:18;;;;;;;12.37;10.50;;;21.20;99.90;;;;;;5113450;28;20170;-70
2021/06/12 06:33:44;;;;;;;11.00;9.90;;;21.30;99.90;;;;;;5113023;28;20201;-70
2021/06/12 06:36:10;;;;;;;10.77;9.67;;;21.40;99.90;;;;;;5113697;28;20338;-71
2021/06/12 06:38:36;;;;;;;9.30;8.40;;;21.40;99.90;;;;;;5113806;28;20150;-71
2021/06/12 06:41:01;;;;;;;9.73;8.47;;;21.40;99.90;;;;;;5113460;28;20210;-71
2021/06/12 06:43:30;;;;;;;7.90;6.87;;;21.40;99.90;;;;;;5113594;28;20170;-71
2021/06/12 06:45:55;;;;;;;9.47;7.73;;;21.40;99.90;;;;;;5112480;28;20180;-71
2021/06/12 06:48:21;;;;;;;9.40;8.37;;;21.50;99.90;;;;;;5113311;28;20938;-71
2021/06/12 06:50:46;;;;;;;9.67;8.67;;;21.50;99.90;;;;;;5113860;28;20158;-71
2021/06/12 06:53:13;;;;;;;7.93;7.23;;;21.60;99.90;;;;;;5113490;28;20186;-71
2021/06/12 06:55:39;;;;;;;12.10;8.97;;;21.80;99.90;;;;;;5113241;28;20203;-71
2021/06/12 06:58:05;;;;;;;5.80;5.30;;;21.90;99.90;;;;;;5113395;28;20884;-71
2021/06/12 07:00:30;;;;;;;6.57;5.97;;;22.00;99.90;;;;;;5112978;28;20478;-71
2021/06/12 07:02:56;;;;;;;8.33;6.73;;;22.10;99.90;;;;;;5112438;28;20181;-71
2021/06/12 07:05:23;;;;;;;7.47;6.77;;;22.20;99.90;;;;;;5113606;28;20623;-71
2021/06/12 07:07:48;;;;;;;9.90;6.53;;;22.30;99.90;;;;;;5113833;28;20151;-71
2021/06/12 07:10:14;;;;;;;6.53;5.93;;;22.30;99.90;;;;;;5113079;28;20903;-71
2021/06/12 07:12:40;;;;;;;7.10;6.40;;;22.40;99.90;;;;;;5113279;28;20197;-71
2021/06/12 07:15:08;;;;;;;7.33;5.20;;;22.60;99.90;;;;;;5113123;28;20618;-71
2021/06/12 07:17:33;;;;;;;5.03;4.40;;;22.70;99.90;;;;;;5113342;28;20516;-71
2021/06/12 07:20:00;;;;;;;6.53;5.13;;;22.90;99.90;;;;;;5114138;28;20559;-71
2021/06/12 07:22:26;;;;;;;5.40;4.80;;;23.20;99.90;;;;;;5117038;28;20270;-71
2021/06/12 07:24:52;;;;;;;5.10;4.70;;;23.30;99.90;;;;;;5117164;28;20843;-71
2021/06/12 07:27:18;;;;;;;6.23;4.57;;;23.60;99.90;;;;;;5116871;28;20395;-71
2021/06/12 07:29:43;;;;;;;5.83;4.70;;;23.80;99.90;;;;;;5116764;28;20671;-71
2021/06/12 07:32:09;;;;;;;5.73;5.00;;;23.90;99.90;;;;;;5116733;28;20219;-71
2021/06/12 07:34:34;;;;;;;7.30;4.73;;;24.20;99.90;;;;;;5117085;28;20282;-71
2021/06/12 07:37:00;;;;;;;5.67;4.23;;;24.60;99.90;;;;;;5107725;28;20597;-71
2021/06/12 07:39:27;;;;;;;4.33;3.97;;;25.00;99.90;;;;;;5096202;28;20189;-71
2021/06/12 07:41:53;;;;;;;7.53;4.93;;;25.10;99.90;;;;;;5096074;28;20155;-71
2021/06/12 07:44:19;;;;;;;5.63;5.10;;;25.10;99.90;;;;;;5095962;28;20412;-71
2021/06/12 07:46:44;;;;;;;7.83;5.80;;;24.80;99.90;;;;;;5095998;28;20152;-71
2021/06/12 07:49:11;;;;;;;6.00;5.40;;;24.60;99.90;;;;;;5096254;28;20166;-71
2021/06/12 07:51:38;;;;;;;9.83;8.83;;;24.30;99.90;;;;;;5096397;28;20147;-71
2021/06/12 07:54:04;;;;;;;8.93;8.23;;;24.00;99.90;;;;;;5096422;28;20448;-71
2021/06/12 07:56:29;;;;;;;10.27;9.30;;;23.60;99.90;;;;;;5096029;28;20407;-71
2021/06/12 07:58:55;;;;;;;10.00;9.00;;;23.30;99.90;;;;;;5095469;28;20546;-71
2021/06/12 08:01:21;;;;;;;10.90;10.00;;;23.20;99.90;;;;;;5097127;28;20155;-71
2021/06/12 08:03:46;;;;;;;10.70;9.67;;;23.30;99.90;;;;;;5096177;28;20583;-71
2021/06/12 08:06:12;;;;;;;11.23;10.17;;;23.30;99.90;;;;;;5095609;28;20181;-71
2021/06/12 08:08:38;;;;;;;10.77;9.90;;;23.40;99.90;;;;;;5095517;28;20234;-71
2021/06/12 08:11:03;;;;;;;12.50;11.30;;;23.40;99.90;;;;;;5114328;28;20170;-71
2021/06/12 08:13:29;;;;;;;12.10;10.97;;;23.40;99.90;;;;;;5115729;28;20521;-71
2021/06/12 08:15:55;;;;;;;12.20;11.20;;;23.40;99.90;;;;;;5115727;28;20259;-71
2021/06/12 08:18:20;;;;;;;11.73;10.83;;;23.30;99.90;;;;;;5116284;28;20182;-71
2021/06/12 08:20:47;;;;;;;11.97;11.07;;;23.20;99.90;;;;;;5115778;28;20239;-71
2021/06/12 08:23:13;;;;;;;14.43;13.00;;;23.00;99.90;;;;;;5115733;28;20162;-71
2021/06/12 08:25:39;;;;;;;14.00;12.70;;;22.90;99.90;;;;;;5115866;28;20491;-71
2021/06/12 08:28:05;;;;;;;13.50;12.30;;;22.70;99.90;;;;;;5114673;28;20178;-71
2021/06/12 08:30:35;;;;;;;14.33;13.03;;;22.60;99.90;;;;;;5115768;28;20193;-71
2021/06/12 08:33:04;;;;;;;15.77;14.43;;;22.40;99.90;;;;;;5115686;28;20824;-71
2021/06/12 08:35:31;;;;;;;17.10;15.50;;;22.20;99.90;;;;;;5115518;28;20388;-71
2021/06/12 08:37:57;;;;;;;17.67;15.87;;;22.00;99.90;;;;;;5115384;28;20487;-71
2021/06/12 08:40:24;;;;;;;18.00;16.20;;;21.80;99.90;;;;;;5115347;28;20480;-71
2021/06/12 08:42:50;;;;;;;18.03;16.13;;;21.70;99.90;;;;;;5114772;28;20396;-71
2021/06/12 08:45:19;;;;;;;17.73;16.10;;;21.60;99.90;;;;;;5115463;28;20475;-71
2021/06/12 08:47:45;;;;;;;18.60;17.20;;;21.50;99.90;;;;;;5116062;28;20887;-71
2021/06/12 08:50:11;;;;;;;18.03;16.53;;;21.40;99.90;;;;;;5115503;28;20392;-71
2021/06/12 08:52:38;;;;;;;20.30;18.67;;;21.30;99.90;;;;;;5114893;28;20539;-71
2021/06/12 08:55:06;;;;;;;20.63;18.77;;;21.20;99.90;;;;;;5115250;28;20388;-71
2021/06/12 08:57:34;;;;;;;21.57;19.60;;;21.10;99.90;;;;;;5115075;28;20397;-71
2021/06/12 09:00:00;;;;;;;21.33;19.43;;;21.10;99.90;;;;;;5114348;28;20427;-71
2021/06/12 09:02:26;;;;;;;21.60;19.50;;;21.00;99.90;;;;;;5115407;28;20396;-71
2021/06/12 09:04:53;;;;;;;24.37;22.27;;;20.90;99.90;;;;;;5114831;28;20777;-71
2021/06/12 09:09:58;;;;;;;25.37;23.00;;;20.80;99.90;;;;;;5147558;27;20817;-71
2021/06/12 09:12:47;;;;;;;22.63;20.63;;;20.80;99.90;;;;;;5131221;27;20410;-71
2021/06/12 09:15:16;;;;;;;23.60;21.33;;;20.80;99.90;;;;;;5130788;28;20475;-71
2021/06/12 09:17:45;;;;;;;22.00;19.90;;;20.80;99.90;;;;;;5123659;28;20399;-71
2021/06/12 09:20:17;;;;;;;20.60;18.90;;;20.90;99.90;;;;;;5110797;28;20475;-71
2021/06/12 09:22:42;;;;;;;21.03;19.30;;;21.00;99.90;;;;;;5110665;28;20437;-71
2021/06/12 09:25:09;;;;;;;19.70;18.00;;;21.20;99.90;;;;;;5110811;28;20765;-71
2021/06/12 09:27:34;;;;;;;21.43;19.53;;;21.40;99.90;;;;;;5110380;28;20250;-71
2021/06/12 09:30:06;;;;;;;18.23;16.63;;;21.70;99.90;;;;;;5110964;28;20488;-71
2021/06/12 09:32:42;;;;;;;18.33;16.60;;;22.10;99.90;;;;;;5110479;28;20153;-71
2021/06/12 09:35:09;;;;;;;17.33;15.83;;;22.50;99.90;;;;;;5111006;28;20408;-71
2021/06/12 09:37:35;;;;;;;17.60;15.90;;;22.80;99.90;;;;;;5110599;28;20430;-71
2021/06/12 09:48:17;;;;;;;14.73;13.50;;;23.20;99.90;;;;;;5147422;27;20293;-72
2021/06/12 09:50:45;;;;;;;15.33;13.77;;;23.10;99.90;;;;;;5131263;28;20811;-72
2021/06/12 09:55:48;;;;;;;16.30;14.80;;;23.10;99.90;;;;;;5147502;27;20315;-70
2021/06/12 09:58:15;;;;;;;15.20;13.90;;;23.00;99.90;;;;;;5131765;28;20391;-71
2021/06/12 10:00:43;;;;;;;15.43;13.93;;;22.90;99.90;;;;;;5131203;28;20927;-70
2021/06/12 10:08:51;;;;;;;14.40;13.00;;;23.00;99.90;;;;;;5138913;27;20320;-71
2021/06/12 10:11:21;;;;;;;14.97;13.43;;;23.10;99.90;;;;;;5110870;28;20805;-71
2021/06/12 10:13:47;;;;;;;13.17;12.07;;;23.30;99.90;;;;;;5111266;28;20416;-71
2021/06/12 10:16:14;;;;;;;12.40;11.30;;;23.30;99.90;;;;;;5110826;28;20808;-71
2021/06/12 10:18:41;;;;;;;12.50;11.30;;;23.40;99.90;;;;;;5110837;28;20158;-72
2021/06/12 10:21:11;;;;;;;13.33;12.03;;;23.40;99.90;;;;;;5110567;28;20403;-71
2021/06/12 10:23:39;;;;;;;13.77;12.23;;;23.50;99.90;;;;;;5110677;28;20881;-71
2021/06/12 10:26:06;;;;;;;12.57;11.37;;;23.50;99.90;;;;;;5110517;28;20774;-71
2021/06/12 10:28:32;;;;;;;14.77;13.27;;;23.70;99.90;;;;;;5110798;28;20446;-71
2021/06/12 10:31:04;;;;;;;12.57;11.43;;;23.70;99.90;;;;;;5110375;28;20404;-71
2021/06/12 10:33:31;;;;;;;12.80;11.80;;;23.90;99.90;;;;;;5110771;28;20428;-71
2021/06/12 10:36:22;;;;;;;13.53;12.27;;;24.00;99.90;;;;;;5110530;28;20392;-71
2021/06/12 10:38:48;;;;;;;14.53;13.23;;;24.20;99.90;;;;;;5110619;28;20397;-71
2021/06/12 10:43:55;;;;;;;15.70;14.30;;;23.90;99.90;;;;;;5129770;27;20765;-70
2021/06/12 10:46:23;;;;;;;15.27;13.87;;;23.80;99.90;;;;;;5110972;28;20384;-70
2021/06/12 10:59:41;;;;;;;14.50;13.20;;;23.40;99.90;;;;;;5135366;27;20681;-70
2021/06/12 11:07:32;;;;;;;13.27;11.97;;;23.80;99.90;;;;;;5147537;27;20334;-71
2021/06/12 11:15:29;;;;;;;11.93;10.93;;;24.20;99.90;;;;;;5147547;27;20342;-71
2021/06/12 11:18:17;;;;;;;11.43;10.43;;;24.30;99.90;;;;;;5113340;27;20414;-70
2021/06/12 11:20:46;;;;;;;15.53;12.57;;;24.40;99.90;;;;;;5109948;28;20392;-71
2021/06/12 11:23:14;;;;;;;9.17;8.23;;;24.50;99.90;;;;;;5110721;28;20395;-71
2021/06/12 11:25:43;;;;;;;14.17;12.87;;;24.60;99.90;;;;;;5111187;28;20483;-71
2021/06/12 11:30:54;;;;;;;12.43;11.30;;;24.60;99.90;;;;;;5147768;27;20285;-72
2021/06/12 11:33:21;;;;;;;13.67;12.37;;;24.60;99.90;;;;;;5126787;28;20847;-72
2021/06/12 11:41:12;;;;;;;11.77;10.60;;;24.50;99.90;;;;;;5137586;27;20339;-71
2021/06/12 11:43:40;;;;;;;14.00;11.47;;;24.10;99.90;;;;;;5111030;28;20388;-71
2021/06/12 11:48:45;;;;;;;16.20;14.50;;;24.00;99.90;;;;;;5147318;27;20293;-71
2021/06/12 11:51:31;;;;;;;15.07;13.57;;;23.80;99.90;;;;;;5119204;28;20408;-70
2021/06/12 11:56:49;;;;;;;14.43;13.03;;;23.70;99.90;;;;;;5147493;27;20688;-71
2021/06/12 11:59:21;;;;;;;13.90;12.70;;;23.40;99.90;;;;;;5131454;28;20486;-71
2021/06/12 12:01:57;;;;;;;15.23;13.90;;;23.20;99.90;;;;;;5131453;28;20422;-71
2021/06/12 12:04:23;;;;;;;15.60;14.20;;;23.00;99.90;;;;;;5131280;27;20380;-71
2021/06/12 12:06:55;;;;;;;13.93;12.57;;;22.90;99.90;;;;;;5130487;28;20474;-71
2021/06/12 12:09:23;;;;;;;13.43;12.10;;;22.70;99.90;;;;;;5110935;28;20463;-71
2021/06/12 12:11:51;;;;;;;12.63;11.50;;;22.60;99.90;;;;;;5110609;28;20797;-71
2021/06/12 12:14:24;;;;;;;14.53;13.10;;;22.60;99.90;;;;;;5110511;28;20496;-71
2021/06/12 12:16:50;;;;;;;11.07;10.10;;;22.70;99.90;;;;;;5110365;28;20923;-71
2021/06/12 12:19:16;;;;;;;12.40;11.20;;;22.90;99.90;;;;;;5110574;28;20396;-71
2021/06/12 12:21:42;;;;;;;12.27;11.00;;;23.10;99.90;;;;;;5110669;28;20245;-71
2021/06/12 12:24:12;;;;;;;12.70;11.23;;;23.20;99.90;;;;;;5111347;28;20844;-71
2021/06/12 12:26:38;;;;;;;10.97;9.20;;;23.30;99.90;;;;;;5110376;28;20237;-71
2021/06/12 12:29:10;;;;;;;10.10;9.20;;;23.40;99.90;;;;;;5110302;28;20396;-71
2021/06/12 12:31:45;;;;;;;13.63;10.40;;;23.30;99.90;;;;;;5110326;28;20456;-71
2021/06/12 12:34:11;;;;;;;9.40;8.53;;;23.40;99.90;;;;;;5110240;28;20414;-71
2021/06/12 12:36:47;;;;;;;7.93;6.50;;;23.50;99.90;;;;;;5110239;28;20436;-71
2021/06/12 12:39:14;;;;;;;7.93;5.93;;;23.50;99.90;;;;;;5110465;28;20158;-71
2021/06/12 12:41:39;;;;;;;5.47;4.50;;;23.50;99.70;;;;;;5117389;28;20453;-71
2021/06/12 12:44:16;;;;;;;5.30;4.67;;;23.40;99.90;;;;;;5130897;28;20876;-71
2021/06/12 12:46:45;;;;;;;3.93;3.47;;;23.30;97.90;;;;;;5130767;28;20234;-71
2021/06/12 12:49:18;;;;;;;5.90;4.03;;;23.20;98.20;;;;;;5130321;28;20537;-71
2021/06/12 12:52:03;;;;;;;5.10;4.60;;;23.10;97.40;;;;;;5130951;28;20388;-71
2021/06/12 12:54:32;;;;;;;5.30;3.37;;;22.90;96.30;;;;;;5130354;28;20387;-71
2021/06/12 12:57:04;;;;;;;3.33;3.03;;;22.80;95.90;;;;;;5130261;28;20776;-71
2021/06/12 13:02:07;;;;;;;6.73;3.90;;;22.80;96.70;;;;;;5147705;27;20301;-71
2021/06/12 13:04:36;;;;;;;5.17;3.50;;;22.90;97.00;;;;;;5131376;28;20410;-71
2021/06/12 13:07:22;;;;;;;8.60;2.97;;;23.00;95.90;;;;;;5131839;28;20723;-71
2021/06/12 13:12:40;;;;;;;3.30;3.00;;;23.00;96.60;;;;;;5147613;27;20366;-71
2021/06/12 13:15:08;;;;;;;7.23;4.10;;;23.00;92.90;;;;;;5128816;28;20415;-71
2021/06/12 13:17:35;;;;;;;2.67;2.47;;;22.90;93.50;;;;;;5111051;28;20916;-71
2021/06/12 13:20:06;;;;;;;5.23;3.30;;;22.90;93.80;;;;;;5110838;28;20465;-70
2021/06/12 13:25:16;;;;;;;5.27;3.67;;;23.00;93.70;;;;;;5147582;27;20648;-71
2021/06/12 13:30:33;;;;;;;4.30;3.40;;;23.00;93.30;;;;;;5147404;27;20297;-71
2021/06/12 13:35:58;;;;;;;4.17;3.17;;;23.10;92.70;;;;;;5148005;27;20294;-72
2021/06/12 13:38:33;;;;;;;5.13;3.70;;;22.90;91.20;;;;;;5131621;28;20395;-71
2021/06/12 13:41:02;;;;;;;4.83;3.50;;;22.90;92.60;;;;;;5131220;28;20402;-71
2021/06/12 13:43:33;;;;;;;3.50;3.20;;;22.70;92.20;;;;;;5131373;28;20376;-71
2021/06/12 13:46:06;;;;;;;4.60;2.97;;;22.60;92.50;;;;;;5131271;28;20407;-71
2021/06/12 13:48:31;;;;;;;5.87;4.40;;;22.60;91.70;;;;;;5132169;28;20380;-71
2021/06/12 13:50:58;;;;;;;3.10;2.80;;;22.50;92.90;;;;;;5130690;28;20452;-72
2021/06/12 13:53:38;;;;;;;4.20;2.93;;;22.50;93.70;;;;;;5131227;27;20244;-71
2021/06/12 13:56:06;;;;;;;3.57;2.60;;;22.40;92.70;;;;;;5131103;28;20391;-72
2021/06/12 13:58:33;;;;;;;3.23;2.47;;;22.30;93.50;;;;;;5130981;28;20415;-71
2021/06/12 14:00:59;;;;;;;3.80;3.30;;;22.30;94.50;;;;;;5131261;28;20394;-71
2021/06/12 14:03:24;;;;;;;3.87;2.97;;;22.30;94.10;;;;;;5131590;28;20387;-72